Time;durP1;ratioP1;P1;durP2;ratioP2;P2;SDS_P1;SDS_P2;PMS_P1;PMS_P2;Temp;Humidity;BMP_temperature;BMP_pressure;BME280_temperature;BME280_humidity;BME280_pressure;Samples;Min_cycle;Max_cycle;Signal;HPM_P1;HPM_P2
2023/12/16 00:03:47;;;;;;;23.58;9.27;;;;;;;;;;10375969;28;20278;-74
2023/12/16 00:08:49;;;;;;;29.80;9.73;;;;;;;;;;10373055;28;20222;-74
2023/12/16 00:13:50;;;;;;;27.02;8.25;;;;;;;;;;10327304;28;20293;-75
2023/12/16 00:18:51;;;;;;;21.35;8.93;;;;;;;;;;10330989;28;20303;-73
2023/12/16 00:23:52;;;;;;;21.90;9.13;;;;;;;;;;10360684;28;20709;-76
2023/12/16 00:28:53;;;;;;;19.17;8.10;;;;;;;;;;10366091;28;20315;-75
2023/12/16 00:33:54;;;;;;;20.63;9.20;;;;;;;;;;10334546;28;20220;-75
2023/12/16 00:38:55;;;;;;;23.83;9.45;;;;;;;;;;10328388;28;20209;-76
2023/12/16 00:43:56;;;;;;;25.83;8.82;;;;;;;;;;10336196;28;20217;-75
2023/12/16 00:48:57;;;;;;;24.17;7.97;;;;;;;;;;10336770;28;20220;-75
2023/12/16 00:53:58;;;;;;;25.50;9.48;;;;;;;;;;10352305;28;20244;-74
2023/12/16 00:58:59;;;;;;;21.08;8.95;;;;;;;;;;10343414;28;20217;-76
2023/12/16 01:04:00;;;;;;;18.70;7.70;;;;;;;;;;10320087;28;20334;-75
2023/12/16 01:09:01;;;;;;;23.58;7.40;;;;;;;;;;10312937;28;20271;-75
2023/12/16 01:14:03;;;;;;;21.05;8.55;;;;;;;;;;10339425;28;20223;-74
2023/12/16 01:19:04;;;;;;;17.20;8.35;;;;;;;;;;10350510;28;20248;-76
2023/12/16 01:24:05;;;;;;;22.65;7.70;;;;;;;;;;10343207;28;20342;-75
2023/12/16 01:29:06;;;;;;;22.88;8.82;;;;;;;;;;10340653;28;20231;-74
2023/12/16 01:34:07;;;;;;;24.52;7.50;;;;;;;;;;10347236;28;20616;-75
2023/12/16 01:39:08;;;;;;;21.48;8.02;;;;;;;;;;10327634;28;20317;-75
2023/12/16 01:44:09;;;;;;;24.30;8.10;;;;;;;;;;10318277;28;20799;-76
2023/12/16 01:49:10;;;;;;;15.20;7.15;;;;;;;;;;10337314;28;20743;-76
2023/12/16 01:54:12;;;;;;;20.63;7.40;;;;;;;;;;10340242;28;20314;-77
2023/12/16 01:59:14;;;;;;;25.98;7.65;;;;;;;;;;10372139;28;20256;-77
2023/12/16 02:04:15;;;;;;;26.02;8.60;;;;;;;;;;10339284;28;21782;-75
2023/12/16 02:09:18;;;;;;;24.20;7.75;;;;;;;;;;10363667;28;20271;-77
2023/12/16 02:14:19;;;;;;;21.48;8.45;;;;;;;;;;10360463;28;20219;-77
2023/12/16 02:19:25;;;;;;;17.38;7.03;;;;;;;;;;10355784;28;20258;-76
2023/12/16 02:24:26;;;;;;;20.13;8.18;;;;;;;;;;10353345;28;20231;-75
2023/12/16 02:29:27;;;;;;;25.20;7.85;;;;;;;;;;10370465;28;20379;-76
2023/12/16 02:34:29;;;;;;;21.60;7.85;;;;;;;;;;10342030;28;20220;-76
2023/12/16 02:39:30;;;;;;;21.55;7.57;;;;;;;;;;10363767;28;20242;-75
2023/12/16 02:44:31;;;;;;;24.45;7.78;;;;;;;;;;10351190;28;20306;-76
2023/12/16 02:49:32;;;;;;;24.40;7.93;;;;;;;;;;10327549;28;20227;-75
2023/12/16 02:54:34;;;;;;;20.23;7.47;;;;;;;;;;10338783;28;20824;-75
2023/12/16 02:59:35;;;;;;;19.15;6.82;;;;;;;;;;10333807;28;20213;-76
2023/12/16 03:04:35;;;;;;;19.85;8.07;;;;;;;;;;10346768;28;20706;-75
2023/12/16 03:09:37;;;;;;;23.20;7.57;;;;;;;;;;10347477;28;20227;-75
2023/12/16 03:14:39;;;;;;;23.33;8.32;;;;;;;;;;10334773;28;20231;-74
2023/12/16 03:19:40;;;;;;;19.67;7.90;;;;;;;;;;10375233;28;20904;-75
2023/12/16 03:24:41;;;;;;;23.17;8.65;;;;;;;;;;10366800;28;20212;-76
2023/12/16 03:29:42;;;;;;;14.75;7.20;;;;;;;;;;10336603;28;20813;-73
2023/12/16 03:34:43;;;;;;;17.50;7.18;;;;;;;;;;10342193;28;20274;-77
2023/12/16 03:39:44;;;;;;;20.77;7.45;;;;;;;;;;10347964;28;20644;-74
2023/12/16 03:44:48;;;;;;;23.90;7.95;;;;;;;;;;10340852;28;20221;-74
2023/12/16 03:49:49;;;;;;;15.88;7.68;;;;;;;;;;10379898;28;20265;-75
2023/12/16 03:54:51;;;;;;;19.75;7.30;;;;;;;;;;10351763;28;20209;-75
2023/12/16 03:59:51;;;;;;;15.90;6.53;;;;;;;;;;10364652;28;20261;-74
2023/12/16 04:04:53;;;;;;;13.93;6.25;;;;;;;;;;10375394;28;20215;-75
2023/12/16 04:09:54;;;;;;;18.77;6.63;;;;;;;;;;10321285;28;21431;-76
2023/12/16 04:14:55;;;;;;;17.50;6.93;;;;;;;;;;10336527;28;20208;-74
2023/12/16 04:19:56;;;;;;;15.65;6.22;;;;;;;;;;10316111;28;20587;-76
2023/12/16 04:24:57;;;;;;;17.75;6.03;;;;;;;;;;10367877;28;20219;-75
2023/12/16 04:29:58;;;;;;;14.90;6.18;;;;;;;;;;10365578;28;20212;-75
2023/12/16 04:35:00;;;;;;;14.00;5.75;;;;;;;;;;10379351;28;20258;-75
2023/12/16 04:40:01;;;;;;;14.23;5.82;;;;;;;;;;10357709;28;20216;-74
2023/12/16 04:45:02;;;;;;;14.43;6.70;;;;;;;;;;10360321;28;20299;-76
2023/12/16 04:50:03;;;;;;;17.60;5.95;;;;;;;;;;10343011;28;20610;-75
2023/12/16 04:55:04;;;;;;;10.02;5.95;;;;;;;;;;10375177;28;20720;-75
2023/12/16 05:00:05;;;;;;;9.23;5.22;;;;;;;;;;10364159;28;20680;-76
2023/12/16 05:05:06;;;;;;;23.83;5.65;;;;;;;;;;10359183;28;20220;-74
2023/12/16 05:10:10;;;;;;;8.45;4.85;;;;;;;;;;10366633;28;20219;-75
2023/12/16 05:15:11;;;;;;;9.32;4.93;;;;;;;;;;10330377;28;20263;-76
2023/12/16 05:20:12;;;;;;;12.65;4.25;;;;;;;;;;10347305;28;20312;-76
2023/12/16 05:25:13;;;;;;;5.97;3.85;;;;;;;;;;10331420;28;20290;-75
2023/12/16 05:30:15;;;;;;;8.27;3.22;;;;;;;;;;10357031;28;20215;-73
2023/12/16 05:35:16;;;;;;;6.88;3.47;;;;;;;;;;10340999;28;20215;-76
2023/12/16 05:40:17;;;;;;;12.20;3.90;;;;;;;;;;10376185;28;20208;-76
2023/12/16 05:45:18;;;;;;;4.97;3.42;;;;;;;;;;10354843;28;20619;-76
2023/12/16 05:50:19;;;;;;;6.25;2.70;;;;;;;;;;10358959;28;20250;-74
2023/12/16 05:55:20;;;;;;;13.60;3.00;;;;;;;;;;10338154;28;20208;-76
2023/12/16 06:00:21;;;;;;;8.65;2.65;;;;;;;;;;10371444;28;20218;-76
2023/12/16 06:05:22;;;;;;;5.70;2.78;;;;;;;;;;10342243;28;20275;-74
2023/12/16 06:10:23;;;;;;;6.38;3.03;;;;;;;;;;10340306;28;20682;-75
2023/12/16 06:15:25;;;;;;;4.45;2.35;;;;;;;;;;10322643;28;20224;-76
2023/12/16 06:20:26;;;;;;;9.48;2.58;;;;;;;;;;10335875;28;20215;-76
2023/12/16 06:25:27;;;;;;;4.80;2.03;;;;;;;;;;10323916;28;20286;-76
2023/12/16 06:30:28;;;;;;;10.10;2.65;;;;;;;;;;10345646;28;20283;-75
2023/12/16 06:35:29;;;;;;;8.20;2.03;;;;;;;;;;10321674;28;20270;-76
2023/12/16 06:40:31;;;;;;;7.00;2.08;;;;;;;;;;10327397;28;20875;-76
2023/12/16 06:45:33;;;;;;;2.30;1.83;;;;;;;;;;10322423;28;20224;-74
2023/12/16 06:50:34;;;;;;;5.53;2.25;;;;;;;;;;10344527;28;20645;-74
2023/12/16 06:55:35;;;;;;;7.63;2.25;;;;;;;;;;10369306;28;20224;-75
2023/12/16 07:00:36;;;;;;;10.15;2.67;;;;;;;;;;10334390;28;20623;-75
2023/12/16 07:05:37;;;;;;;9.85;2.15;;;;;;;;;;10346822;28;20219;-74
2023/12/16 07:10:38;;;;;;;4.07;1.70;;;;;;;;;;10330102;28;20220;-74
2023/12/16 07:15:39;;;;;;;8.25;2.38;;;;;;;;;;10339721;28;20228;-73
2023/12/16 07:20:40;;;;;;;4.13;1.85;;;;;;;;;;10344468;28;20216;-75
2023/12/16 07:25:41;;;;;;;4.05;1.40;;;;;;;;;;10336080;28;20290;-76
2023/12/16 07:30:42;;;;;;;10.85;2.13;;;;;;;;;;10347013;28;20201;-75
2023/12/16 07:35:44;;;;;;;11.90;4.03;;;;;;;;;;10329111;28;20230;-73
2023/12/16 07:40:45;;;;;;;5.93;1.55;;;;;;;;;;10365722;28;20582;-76
2023/12/16 07:45:46;;;;;;;9.60;1.80;;;;;;;;;;10360153;28;20212;-76
2023/12/16 07:50:47;;;;;;;5.38;1.98;;;;;;;;;;10330082;28;20807;-77
2023/12/16 07:55:49;;;;;;;3.53;1.73;;;;;;;;;;10364438;28;20221;-76
2023/12/16 08:00:50;;;;;;;2.28;1.42;;;;;;;;;;10330310;28;20228;-75
2023/12/16 08:05:51;;;;;;;2.17;1.92;;;;;;;;;;10333146;28;20221;-75
2023/12/16 08:10:53;;;;;;;6.22;2.20;;;;;;;;;;10358270;28;20217;-76
2023/12/16 08:15:54;;;;;;;7.85;1.98;;;;;;;;;;10327363;28;20306;-76
2023/12/16 08:20:55;;;;;;;2.22;1.75;;;;;;;;;;10353599;28;20583;-73
2023/12/16 08:25:56;;;;;;;3.92;2.40;;;;;;;;;;10342421;28;20220;-74
2023/12/16 08:30:57;;;;;;;12.23;2.15;;;;;;;;;;10350208;28;20200;-75
2023/12/16 08:35:58;;;;;;;5.88;2.10;;;;;;;;;;10341135;28;20223;-75
2023/12/16 08:40:59;;;;;;;4.80;1.73;;;;;;;;;;10358516;28;20220;-75
2023/12/16 08:46:00;;;;;;;9.38;2.33;;;;;;;;;;10344852;28;20219;-75
2023/12/16 08:51:01;;;;;;;7.30;1.98;;;;;;;;;;10329782;28;20212;-75
2023/12/16 08:56:02;;;;;;;3.13;1.40;;;;;;;;;;10302309;28;20214;-76
2023/12/16 09:01:04;;;;;;;8.35;2.55;;;;;;;;;;10325895;28;20208;-76
2023/12/16 09:06:05;;;;;;;9.95;2.20;;;;;;;;;;10342942;28;20219;-74
2023/12/16 09:11:06;;;;;;;6.63;1.50;;;;;;;;;;10375213;28;20278;-75
2023/12/16 09:16:07;;;;;;;4.82;1.65;;;;;;;;;;10366827;28;20216;-76
2023/12/16 09:21:08;;;;;;;2.25;2.05;;;;;;;;;;10326976;28;20715;-75
2023/12/16 09:26:09;;;;;;;9.88;2.38;;;;;;;;;;10336989;28;20968;-77
2023/12/16 09:31:10;;;;;;;3.55;1.95;;;;;;;;;;10344551;28;20237;-80
2023/12/16 09:36:15;;;;;;;7.45;1.80;;;;;;;;;;10327743;28;20247;-76
2023/12/16 09:41:22;;;;;;;1.88;1.77;;;;;;;;;;10315829;28;20215;-75
2023/12/16 09:46:23;;;;;;;7.75;2.13;;;;;;;;;;10330099;28;20710;-76
2023/12/16 09:51:24;;;;;;;6.82;1.45;;;;;;;;;;10318881;28;20891;-74
2023/12/16 09:56:30;;;;;;;5.88;1.70;;;;;;;;;;10320308;28;20309;-79
2023/12/16 10:01:31;;;;;;;7.28;1.60;;;;;;;;;;10336592;28;20700;-76
2023/12/16 10:06:32;;;;;;;5.65;1.20;;;;;;;;;;10325307;28;20298;-76
2023/12/16 10:11:40;;;;;;;6.80;1.48;;;;;;;;;;10369510;28;20620;-74
2023/12/16 10:16:46;;;;;;;3.97;0.90;;;;;;;;;;10354184;28;20253;-77
2023/12/16 10:21:48;;;;;;;5.40;1.15;;;;;;;;;;10328303;28;20216;-74
2023/12/16 10:26:49;;;;;;;8.52;1.20;;;;;;;;;;10322540;28;21126;-75
2023/12/16 10:31:52;;;;;;;2.28;1.05;;;;;;;;;;10323198;28;20287;-76
2023/12/16 10:36:53;;;;;;;0.98;0.90;;;;;;;;;;10322664;28;20698;-74
2023/12/16 10:41:56;;;;;;;4.10;1.08;;;;;;;;;;10352424;28;20759;-76
2023/12/16 10:47:08;;;;;;;4.97;1.02;;;;;;;;;;10361809;28;20259;-76
2023/12/16 10:52:15;;;;;;;1.90;1.00;;;;;;;;;;10329231;28;20217;-75
2023/12/16 10:57:17;;;;;;;11.43;1.33;;;;;;;;;;10337247;28;20539;-76
2023/12/16 11:02:26;;;;;;;8.18;1.20;;;;;;;;;;10331873;28;20267;-77
2023/12/16 11:07:34;;;;;;;6.57;1.40;;;;;;;;;;10313851;28;20224;-77
2023/12/16 11:12:36;;;;;;;4.75;0.90;;;;;;;;;;10367878;28;20227;-78
2023/12/16 11:17:49;;;;;;;4.47;0.90;;;;;;;;;;10321692;28;22546;-77
2023/12/16 11:22:53;;;;;;;2.28;0.85;;;;;;;;;;10360399;28;20220;-77
2023/12/16 11:27:57;;;;;;;7.10;1.05;;;;;;;;;;10321031;28;20231;-78
2023/12/16 11:32:59;;;;;;;4.18;1.05;;;;;;;;;;10347178;28;20216;-78
2023/12/16 11:38:00;;;;;;;10.68;1.02;;;;;;;;;;10374494;28;20216;-77
2023/12/16 11:43:03;;;;;;;2.88;1.00;;;;;;;;;;10344027;28;20208;-78
2023/12/16 11:48:08;;;;;;;3.53;1.02;;;;;;;;;;10356251;23;20733;-76
2023/12/16 11:53:19;;;;;;;1.50;1.00;;;;;;;;;;10335156;28;20216;-76
2023/12/16 11:58:20;;;;;;;6.28;1.20;;;;;;;;;;10338496;28;20258;-79
2023/12/16 12:03:23;;;;;;;1.95;0.80;;;;;;;;;;10346362;28;20319;-78
2023/12/16 12:08:26;;;;;;;7.65;1.02;;;;;;;;;;10326241;28;20283;-80
2023/12/16 12:13:27;;;;;;;1.77;0.75;;;;;;;;;;10334129;28;20294;-78
2023/12/16 12:18:28;;;;;;;18.23;1.20;;;;;;;;;;10318223;28;20219;-76
2023/12/16 12:23:29;;;;;;;3.63;1.13;;;;;;;;;;10335646;28;20220;-76
2023/12/16 12:28:30;;;;;;;3.20;0.90;;;;;;;;;;10329213;28;20231;-76
2023/12/16 12:33:32;;;;;;;6.82;1.27;;;;;;;;;;10318637;28;20302;-77
2023/12/16 12:38:33;;;;;;;5.30;1.67;;;;;;;;;;10326891;28;20340;-76
2023/12/16 12:43:36;;;;;;;4.72;1.10;;;;;;;;;;10331724;28;20277;-74
2023/12/16 12:48:37;;;;;;;3.60;0.88;;;;;;;;;;10326774;28;20988;-75
2023/12/16 12:53:39;;;;;;;8.68;1.05;;;;;;;;;;10321183;28;23350;-76
2023/12/16 12:58:40;;;;;;;7.70;1.10;;;;;;;;;;10315252;28;20227;-75
2023/12/16 13:03:41;;;;;;;4.00;1.38;;;;;;;;;;10322335;28;20242;-77
2023/12/16 13:08:42;;;;;;;7.15;0.98;;;;;;;;;;10303840;28;20726;-75
2023/12/16 13:13:43;;;;;;;7.70;1.42;;;;;;;;;;10312399;28;20292;-75
2023/12/16 13:18:45;;;;;;;4.95;0.98;;;;;;;;;;10312552;28;20212;-77
2023/12/16 13:23:46;;;;;;;9.98;1.50;;;;;;;;;;10316822;28;20224;-78
2023/12/16 13:28:48;;;;;;;5.13;1.33;;;;;;;;;;10307647;28;20307;-74
2023/12/16 13:33:49;;;;;;;5.05;1.13;;;;;;;;;;10304768;28;20230;-77
2023/12/16 13:38:50;;;;;;;6.22;1.48;;;;;;;;;;10285837;28;20710;-75
2023/12/16 13:43:51;;;;;;;3.72;0.93;;;;;;;;;;10288230;28;20227;-75
2023/12/16 13:48:52;;;;;;;2.80;1.33;;;;;;;;;;10289493;28;20658;-74
2023/12/16 13:53:53;;;;;;;6.07;1.20;;;;;;;;;;10304034;28;20223;-76
2023/12/16 13:58:54;;;;;;;5.22;1.05;;;;;;;;;;10288253;28;20322;-75
2023/12/16 14:03:55;;;;;;;4.68;1.15;;;;;;;;;;10303077;28;20212;-76
2023/12/16 14:08:56;;;;;;;2.47;1.20;;;;;;;;;;10326166;28;20251;-75
2023/12/16 14:13:57;;;;;;;5.15;1.75;;;;;;;;;;10334374;28;20217;-77
2023/12/16 14:18:58;;;;;;;3.70;1.38;;;;;;;;;;10342353;28;21056;-74
2023/12/16 14:23:59;;;;;;;7.93;2.03;;;;;;;;;;10332484;28;20811;-77
2023/12/16 14:29:00;;;;;;;8.02;1.60;;;;;;;;;;10333931;28;20459;-77
2023/12/16 14:34:01;;;;;;;4.90;1.10;;;;;;;;;;10330024;28;20212;-77
2023/12/16 14:39:03;;;;;;;6.28;1.23;;;;;;;;;;10317759;28;20234;-78
2023/12/16 14:44:04;;;;;;;6.07;1.38;;;;;;;;;;10319311;28;20811;-74
2023/12/16 14:49:05;;;;;;;5.13;2.00;;;;;;;;;;10298872;28;20235;-74
2023/12/16 14:54:06;;;;;;;2.33;1.00;;;;;;;;;;10310069;28;20756;-74
2023/12/16 14:59:07;;;;;;;6.57;0.95;;;;;;;;;;10298372;28;20266;-74
2023/12/16 15:04:08;;;;;;;5.60;1.02;;;;;;;;;;10327623;28;20219;-75
2023/12/16 15:09:09;;;;;;;3.17;1.23;;;;;;;;;;10335792;28;20290;-75
2023/12/16 15:14:14;;;;;;;8.38;1.73;;;;;;;;;;10344411;28;20219;-76
2023/12/16 15:19:15;;;;;;;6.63;1.20;;;;;;;;;;10347150;28;20227;-74
2023/12/16 15:24:16;;;;;;;7.85;1.30;;;;;;;;;;10326311;28;20251;-75
2023/12/16 15:29:17;;;;;;;6.72;1.52;;;;;;;;;;10345802;28;20227;-76
2023/12/16 15:34:19;;;;;;;5.07;1.15;;;;;;;;;;10346025;28;20705;-75
2023/12/16 15:39:20;;;;;;;3.95;1.17;;;;;;;;;;10345031;28;20224;-75
2023/12/16 15:44:21;;;;;;;3.80;1.42;;;;;;;;;;10316163;28;20735;-78
2023/12/16 15:49:23;;;;;;;5.05;1.70;;;;;;;;;;10293697;28;20235;-78
2023/12/16 15:54:24;;;;;;;4.72;1.25;;;;;;;;;;10331678;28;20208;-76
2023/12/16 15:59:25;;;;;;;8.30;1.30;;;;;;;;;;10354455;28;20247;-76
2023/12/16 16:04:26;;;;;;;10.15;1.30;;;;;;;;;;10335421;28;20255;-77
2023/12/16 16:09:27;;;;;;;2.20;1.00;;;;;;;;;;10335696;28;20215;-77
2023/12/16 16:14:28;;;;;;;8.77;1.23;;;;;;;;;;10335638;28;20216;-75
2023/12/16 16:19:29;;;;;;;5.43;1.55;;;;;;;;;;10341127;28;20216;-76
2023/12/16 16:24:30;;;;;;;4.32;1.23;;;;;;;;;;10336373;28;20656;-78
2023/12/16 16:29:31;;;;;;;6.32;1.73;;;;;;;;;;10341742;28;20254;-77
2023/12/16 16:34:32;;;;;;;3.58;1.30;;;;;;;;;;10340803;28;20694;-76
2023/12/16 16:39:33;;;;;;;7.55;1.35;;;;;;;;;;10328877;28;21512;-76
2023/12/16 16:44:34;;;;;;;7.35;1.70;;;;;;;;;;10332829;28;20392;-76
2023/12/16 16:49:35;;;;;;;3.67;1.23;;;;;;;;;;10336082;28;20361;-77
2023/12/16 16:54:37;;;;;;;5.55;1.60;;;;;;;;;;10321037;28;20238;-75
2023/12/16 16:59:39;;;;;;;3.60;1.42;;;;;;;;;;10335419;28;20231;-76
2023/12/16 17:04:40;;;;;;;5.57;1.23;;;;;;;;;;10324725;28;20247;-75
2023/12/16 17:09:41;;;;;;;4.68;1.20;;;;;;;;;;10322762;28;20658;-78
2023/12/16 17:14:42;;;;;;;6.57;1.27;;;;;;;;;;10328776;28;20220;-75
2023/12/16 17:19:43;;;;;;;6.88;1.65;;;;;;;;;;10344418;28;20617;-75
2023/12/16 17:24:44;;;;;;;7.93;1.70;;;;;;;;;;10337115;28;20254;-73
2023/12/16 17:29:45;;;;;;;2.83;1.67;;;;;;;;;;10338559;28;20224;-75
2023/12/16 17:34:47;;;;;;;4.22;1.67;;;;;;;;;;10339645;28;20212;-74
2023/12/16 17:39:47;;;;;;;4.75;1.60;;;;;;;;;;10336892;28;20755;-74
2023/12/16 17:44:48;;;;;;;6.10;2.42;;;;;;;;;;10322842;28;20227;-77
2023/12/16 17:49:50;;;;;;;2.55;1.17;;;;;;;;;;10332182;28;20219;-75
2023/12/16 17:54:53;;;;;;;1.40;1.30;;;;;;;;;;10335976;28;20215;-75
2023/12/16 17:59:54;;;;;;;4.30;1.60;;;;;;;;;;10307478;28;20307;-75
2023/12/16 18:04:55;;;;;;;3.22;1.98;;;;;;;;;;10322211;28;20224;-75
2023/12/16 18:09:56;;;;;;;5.90;2.30;;;;;;;;;;10321245;28;20876;-74
2023/12/16 18:14:57;;;;;;;8.45;2.17;;;;;;;;;;10320289;28;20212;-75
2023/12/16 18:19:58;;;;;;;4.93;2.40;;;;;;;;;;10323561;28;20217;-73
2023/12/16 18:24:59;;;;;;;7.40;2.80;;;;;;;;;;10335249;28;20224;-75
2023/12/16 18:30:00;;;;;;;4.43;3.33;;;;;;;;;;10338915;28;20713;-74
2023/12/16 18:35:02;;;;;;;6.90;2.97;;;;;;;;;;10338309;28;20220;-76
2023/12/16 18:40:04;;;;;;;6.82;3.28;;;;;;;;;;10336734;28;20214;-76
2023/12/16 18:45:06;;;;;;;5.65;3.35;;;;;;;;;;10337404;28;20578;-74
2023/12/16 18:50:07;;;;;;;4.85;3.72;;;;;;;;;;10338783;28;20718;-75
2023/12/16 18:55:08;;;;;;;3.47;3.15;;;;;;;;;;10338771;28;20219;-76
2023/12/16 19:00:10;;;;;;;3.47;3.10;;;;;;;;;;10340535;28;20381;-73
2023/12/16 19:05:11;;;;;;;6.85;3.88;;;;;;;;;;10340834;28;20231;-74
2023/12/16 19:10:12;;;;;;;10.13;4.72;;;;;;;;;;10330227;28;20760;-73
2023/12/16 19:15:13;;;;;;;7.55;4.25;;;;;;;;;;10343964;28;20254;-74
2023/12/16 19:20:15;;;;;;;6.10;4.78;;;;;;;;;;10339999;28;20222;-73
2023/12/16 19:25:16;;;;;;;9.25;5.22;;;;;;;;;;10341429;28;20278;-73
2023/12/16 19:30:17;;;;;;;8.35;4.90;;;;;;;;;;10331120;28;20227;-75
2023/12/16 19:35:18;;;;;;;8.40;5.38;;;;;;;;;;10335206;28;20682;-75
2023/12/16 19:40:20;;;;;;;10.60;5.30;;;;;;;;;;10335299;28;20952;-76
2023/12/16 19:45:21;;;;;;;8.45;5.00;;;;;;;;;;10347165;28;20295;-77
2023/12/16 19:50:22;;;;;;;11.23;5.60;;;;;;;;;;10331977;28;20336;-74
2023/12/16 19:55:23;;;;;;;9.57;5.95;;;;;;;;;;10333748;28;21073;-73
2023/12/16 20:00:24;;;;;;;6.03;5.40;;;;;;;;;;10338991;28;20247;-74
2023/12/16 20:05:27;;;;;;;15.55;6.47;;;;;;;;;;10365508;28;20228;-74
2023/12/16 20:10:28;;;;;;;12.48;7.45;;;;;;;;;;10346338;28;20212;-74
2023/12/16 20:15:29;;;;;;;10.48;6.88;;;;;;;;;;10340140;28;20748;-74
2023/12/16 20:20:30;;;;;;;11.82;7.78;;;;;;;;;;10342404;28;20212;-73
2023/12/16 20:25:31;;;;;;;11.38;7.05;;;;;;;;;;10337255;28;20220;-74
2023/12/16 20:30:32;;;;;;;9.57;5.90;;;;;;;;;;10346975;28;20212;-72
2023/12/16 20:35:33;;;;;;;8.50;5.35;;;;;;;;;;10346157;28;20302;-73
2023/12/16 20:40:37;;;;;;;7.40;5.90;;;;;;;;;;10343209;28;20234;-74
2023/12/16 20:45:38;;;;;;;7.07;5.25;;;;;;;;;;10339836;28;20957;-75
2023/12/16 20:50:40;;;;;;;6.00;4.80;;;;;;;;;;10340989;28;20286;-73
2023/12/16 20:55:41;;;;;;;5.68;4.65;;;;;;;;;;10347577;28;20216;-74
2023/12/16 21:00:42;;;;;;;7.85;5.60;;;;;;;;;;10346198;28;20906;-75
2023/12/16 21:05:43;;;;;;;11.20;5.80;;;;;;;;;;10337916;28;20558;-75
2023/12/16 21:10:44;;;;;;;11.05;6.78;;;;;;;;;;10327964;28;21045;-75
2023/12/16 21:15:47;;;;;;;9.45;6.20;;;;;;;;;;10342264;28;20208;-76
2023/12/16 21:20:48;;;;;;;6.30;5.70;;;;;;;;;;10341359;28;20296;-75
2023/12/16 21:25:49;;;;;;;11.32;6.25;;;;;;;;;;10339072;28;20291;-76
2023/12/16 21:30:50;;;;;;;10.18;7.05;;;;;;;;;;10330361;28;20235;-75
2023/12/16 21:35:52;;;;;;;15.95;6.53;;;;;;;;;;10342262;28;20232;-75
2023/12/16 21:40:54;;;;;;;9.57;5.60;;;;;;;;;;10342766;28;20208;-75
2023/12/16 21:45:55;;;;;;;11.50;6.50;;;;;;;;;;10337540;28;20227;-75
2023/12/16 21:50:58;;;;;;;10.73;7.18;;;;;;;;;;10332876;28;20211;-75
2023/12/16 21:55:58;;;;;;;8.27;6.50;;;;;;;;;;10340242;28;20243;-75
2023/12/16 22:00:59;;;;;;;8.48;5.63;;;;;;;;;;10345613;28;20760;-75
2023/12/16 22:06:00;;;;;;;9.98;6.68;;;;;;;;;;10330581;28;20676;-75
2023/12/16 22:11:01;;;;;;;10.90;6.22;;;;;;;;;;10345942;28;20632;-76
2023/12/16 22:16:02;;;;;;;9.73;6.78;;;;;;;;;;10340002;28;20216;-76
2023/12/16 22:21:04;;;;;;;14.98;6.63;;;;;;;;;;10346661;28;20314;-76
2023/12/16 22:26:05;;;;;;;8.88;6.78;;;;;;;;;;10337526;28;20965;-77
2023/12/16 22:31:06;;;;;;;10.43;5.85;;;;;;;;;;10328848;28;20621;-76
2023/12/16 22:36:07;;;;;;;7.72;6.38;;;;;;;;;;10340635;28;20211;-76
2023/12/16 22:41:08;;;;;;;6.95;5.93;;;;;;;;;;10336107;28;20262;-73
2023/12/16 22:46:10;;;;;;;11.52;6.50;;;;;;;;;;10330625;28;20247;-76
2023/12/16 22:51:11;;;;;;;9.40;6.18;;;;;;;;;;10332834;28;20678;-80
2023/12/16 22:56:16;;;;;;;8.77;5.45;;;;;;;;;;10315482;28;20247;-76
2023/12/16 23:01:17;;;;;;;7.90;5.85;;;;;;;;;;10345527;28;20212;-75
2023/12/16 23:06:18;;;;;;;8.85;6.07;;;;;;;;;;10331517;28;20226;-74
2023/12/16 23:11:19;;;;;;;8.68;6.45;;;;;;;;;;10334823;28;20224;-74
2023/12/16 23:16:20;;;;;;;10.43;6.18;;;;;;;;;;10338196;28;20762;-75
2023/12/16 23:21:21;;;;;;;13.07;7.03;;;;;;;;;;10336556;28;20674;-75
2023/12/16 23:26:22;;;;;;;10.50;6.80;;;;;;;;;;10337834;28;20255;-74
2023/12/16 23:31:23;;;;;;;12.85;7.07;;;;;;;;;;10334040;28;20224;-74
2023/12/16 23:36:24;;;;;;;10.18;6.88;;;;;;;;;;10348830;28;20282;-75
2023/12/16 23:41:25;;;;;;;11.57;6.22;;;;;;;;;;10334772;28;20223;-75
2023/12/16 23:46:27;;;;;;;9.30;5.82;;;;;;;;;;10345507;28;20698;-75
2023/12/16 23:51:28;;;;;;;9.88;6.45;;;;;;;;;;10341190;28;20729;-74
2023/12/16 23:56:29;;;;;;;9.35;6.80;;;;;;;;;;10347341;28;20227;-77
